createdAt,value
2018-04-17T00:00:24.583Z,0.00
2018-04-17T00:01:24.574Z,0.00
2018-04-17T00:02:24.568Z,0.00
2018-04-17T00:03:24.556Z,0.00
2018-04-17T00:04:24.548Z,0.00
2018-04-17T00:05:24.543Z,0.00
2018-04-17T00:06:24.531Z,0.00
2018-04-17T00:07:24.524Z,0.00
2018-04-17T00:08:24.513Z,0.00
2018-04-17T00:09:24.508Z,0.00
2018-04-17T00:10:24.496Z,0.00
2018-04-17T00:11:24.488Z,0.00
2018-04-17T00:12:24.477Z,0.00
2018-04-17T00:13:24.470Z,0.00
2018-04-17T00:14:24.461Z,0.00
2018-04-17T00:15:24.452Z,0.00
2018-04-17T00:16:24.543Z,0.00
2018-04-17T00:17:24.434Z,0.00
2018-04-17T00:18:24.425Z,0.00
2018-04-17T00:19:24.416Z,0.00
2018-04-17T00:20:24.416Z,0.00
2018-04-17T00:21:24.403Z,0.00
2018-04-17T00:22:24.490Z,0.00
2018-04-17T00:23:24.381Z,0.00
2018-04-17T00:24:24.374Z,0.00
2018-04-17T00:25:24.369Z,0.00
2018-04-17T00:26:24.355Z,0.00
2018-04-17T00:27:24.346Z,0.00
2018-04-17T00:28:24.336Z,0.00
2018-04-17T00:29:24.329Z,0.00
2018-04-17T00:30:24.318Z,0.00
2018-04-17T00:31:24.321Z,0.00
2018-04-17T00:32:24.315Z,0.00
2018-04-17T00:33:24.294Z,0.00
2018-04-17T00:34:24.391Z,0.00
2018-04-17T00:35:24.278Z,0.00
2018-04-17T00:36:24.266Z,0.00
2018-04-17T00:37:24.258Z,0.00
2018-04-17T00:38:24.257Z,0.00
2018-04-17T00:39:24.242Z,0.00
2018-04-17T00:40:24.331Z,0.00
2018-04-17T00:41:24.229Z,0.00
2018-04-17T00:42:24.219Z,0.00
2018-04-17T00:43:24.205Z,0.00
2018-04-17T00:44:24.195Z,0.00
2018-04-17T00:45:24.187Z,0.00
2018-04-17T00:46:24.281Z,0.00
2018-04-17T00:47:24.173Z,0.00
2018-04-17T00:48:24.165Z,0.00
2018-04-17T00:49:24.153Z,0.00
2018-04-17T00:50:24.144Z,0.00
2018-04-17T00:51:24.133Z,0.00
2018-04-17T00:52:24.128Z,0.00
2018-04-17T00:53:24.120Z,0.00
2018-04-17T00:54:24.117Z,0.00
2018-04-17T00:55:24.101Z,0.00
2018-04-17T00:56:24.102Z,0.00
2018-04-17T00:57:24.086Z,0.00
2018-04-17T00:58:24.074Z,0.00
2018-04-17T00:59:24.065Z,0.00
2018-04-17T01:00:24.059Z,0.00
2018-04-17T01:01:24.055Z,0.00
2018-04-17T01:02:24.046Z,0.00
2018-04-17T01:03:24.030Z,0.00
2018-04-17T01:04:24.019Z,0.00
2018-04-17T01:05:24.020Z,0.00
2018-04-17T01:06:24.011Z,0.00
2018-04-17T01:07:23.995Z,0.00
2018-04-17T01:08:23.990Z,0.00
2018-04-17T01:09:23.976Z,0.00
2018-04-17T01:10:23.968Z,0.00
2018-04-17T01:11:23.962Z,0.00
2018-04-17T01:12:23.954Z,0.00
2018-04-17T01:13:23.941Z,0.00
2018-04-17T01:14:23.932Z,0.00
2018-04-17T01:15:23.922Z,0.00
2018-04-17T01:16:23.913Z,0.00
2018-04-17T01:17:23.905Z,0.00
2018-04-17T01:18:23.895Z,0.00
2018-04-17T01:19:23.893Z,0.00
2018-04-17T01:20:23.884Z,0.00
2018-04-17T01:21:23.873Z,0.00
2018-04-17T01:22:23.862Z,0.00
2018-04-17T01:23:23.852Z,0.00
2018-04-17T01:24:23.842Z,0.00
2018-04-17T01:25:23.832Z,0.00
2018-04-17T01:26:23.824Z,0.00
2018-04-17T01:27:23.819Z,0.00
2018-04-17T01:28:23.812Z,0.00
2018-04-17T01:29:23.797Z,0.00
2018-04-17T01:30:23.794Z,0.00
2018-04-17T01:31:23.785Z,0.00
2018-04-17T01:32:23.773Z,0.00
2018-04-17T01:33:23.769Z,0.00
2018-04-17T01:34:23.753Z,0.00
2018-04-17T01:35:23.747Z,0.00
2018-04-17T01:36:23.735Z,0.00
2018-04-17T01:37:23.732Z,0.00
2018-04-17T01:38:23.716Z,0.00
2018-04-17T01:39:23.714Z,0.00
2018-04-17T01:40:23.697Z,0.00
2018-04-17T01:41:23.704Z,0.00
2018-04-17T01:42:23.680Z,0.00
2018-04-17T01:43:23.670Z,0.00
2018-04-17T01:44:23.669Z,0.00
2018-04-17T01:45:23.660Z,0.00
2018-04-17T01:46:23.745Z,0.00
2018-04-17T01:47:23.640Z,0.00
2018-04-17T01:48:23.626Z,0.00
2018-04-17T01:49:23.619Z,0.00
2018-04-17T01:50:23.612Z,0.00
2018-04-17T01:51:23.600Z,0.00
2018-04-17T01:52:23.594Z,0.00
2018-04-17T01:53:23.583Z,0.00
2018-04-17T01:54:23.578Z,0.00
2018-04-17T01:55:23.571Z,0.00
2018-04-17T01:56:23.555Z,0.00
2018-04-17T01:57:23.549Z,0.00
2018-04-17T01:58:23.541Z,0.00
2018-04-17T01:59:23.546Z,0.00
2018-04-17T02:00:23.525Z,0.00
2018-04-17T02:01:23.515Z,0.00
2018-04-17T02:02:23.507Z,0.00
2018-04-17T02:03:23.498Z,0.00
2018-04-17T02:04:23.490Z,0.00
2018-04-17T02:05:23.480Z,0.00
2018-04-17T02:06:23.471Z,0.00
2018-04-17T02:07:23.464Z,0.00
2018-04-17T02:08:23.454Z,0.00
2018-04-17T02:09:23.450Z,0.00
2018-04-17T02:10:23.536Z,0.00
2018-04-17T02:11:23.431Z,0.00
2018-04-17T02:12:23.418Z,0.00
2018-04-17T02:13:23.416Z,0.00
2018-04-17T02:14:23.399Z,0.00
2018-04-17T02:15:23.399Z,0.00
2018-04-17T02:16:23.381Z,0.00
2018-04-17T02:17:23.379Z,0.00
2018-04-17T02:18:23.366Z,0.00
2018-04-17T02:19:23.361Z,0.00
2018-04-17T02:20:23.347Z,0.00
2018-04-17T02:21:23.337Z,0.00
2018-04-17T02:22:23.330Z,0.00
2018-04-17T02:23:23.319Z,0.00
2018-04-17T02:24:23.316Z,0.00
2018-04-17T02:25:23.304Z,0.00
2018-04-17T02:26:23.295Z,0.00
2018-04-17T02:27:23.285Z,0.00
2018-04-17T02:28:23.273Z,0.00
2018-04-17T02:29:23.267Z,0.00
2018-04-17T02:30:23.272Z,0.00
2018-04-17T02:31:23.251Z,0.00
2018-04-17T02:32:23.239Z,0.00
2018-04-17T02:33:23.235Z,0.00
2018-04-17T02:34:23.224Z,0.00
2018-04-17T02:35:23.220Z,0.00
2018-04-17T02:36:23.201Z,0.00
2018-04-17T02:37:23.190Z,0.00
2018-04-17T02:38:23.183Z,0.00
2018-04-17T02:39:23.175Z,0.00
2018-04-17T02:40:23.268Z,0.00
2018-04-17T02:41:23.155Z,0.00
2018-04-17T02:42:23.147Z,0.00
2018-04-17T02:43:23.138Z,0.00
2018-04-17T02:44:23.130Z,0.00
2018-04-17T02:45:23.125Z,0.00
2018-04-17T02:46:23.112Z,0.00
2018-04-17T02:47:23.103Z,0.00
2018-04-17T02:48:23.093Z,0.00
2018-04-17T02:49:23.085Z,0.00
2018-04-17T02:50:23.074Z,0.00
2018-04-17T02:51:23.064Z,0.00
2018-04-17T02:52:23.055Z,0.00
2018-04-17T02:53:23.047Z,0.00
2018-04-17T02:54:23.045Z,0.00
2018-04-17T02:55:23.025Z,0.00
2018-04-17T02:56:23.023Z,0.00
2018-04-17T02:57:23.015Z,0.00
2018-04-17T02:58:23.004Z,0.00
2018-04-17T02:59:22.993Z,0.00
2018-04-17T03:00:22.984Z,0.00
2018-04-17T03:01:22.978Z,0.00
2018-04-17T03:02:22.966Z,0.00
2018-04-17T03:03:22.971Z,0.00
2018-04-17T03:04:23.049Z,0.00
2018-04-17T03:05:22.939Z,0.00
2018-04-17T03:06:22.929Z,0.00
2018-04-17T03:07:22.924Z,0.00
2018-04-17T03:08:22.910Z,0.00
2018-04-17T03:09:22.903Z,0.00
2018-04-17T03:10:22.993Z,0.00
2018-04-17T03:11:22.884Z,0.00
2018-04-17T03:12:22.876Z,0.00
2018-04-17T03:13:22.866Z,0.00
2018-04-17T03:14:22.859Z,0.00
2018-04-17T03:15:22.848Z,0.00
2018-04-17T03:16:22.840Z,0.00
2018-04-17T03:17:22.831Z,0.00
2018-04-17T03:18:22.821Z,0.00
2018-04-17T03:19:22.812Z,0.00
2018-04-17T03:20:22.804Z,0.00
2018-04-17T03:21:22.794Z,0.00
2018-04-17T03:22:22.886Z,0.00
2018-04-17T03:23:22.776Z,0.00
2018-04-17T03:24:22.766Z,0.00
2018-04-17T03:25:22.757Z,0.00
2018-04-17T03:26:22.752Z,0.00
2018-04-17T03:27:22.741Z,0.00
2018-04-17T03:28:22.730Z,0.00
2018-04-17T03:29:22.721Z,0.00
2018-04-17T03:30:22.712Z,0.00
2018-04-17T03:31:22.706Z,0.00
2018-04-17T03:32:22.736Z,0.00
2018-04-17T03:33:22.684Z,0.00
2018-04-17T03:34:22.677Z,0.00
2018-04-17T03:35:22.668Z,0.00
2018-04-17T03:36:22.658Z,0.00
2018-04-17T03:37:22.647Z,0.00
2018-04-17T03:38:22.639Z,0.00
2018-04-17T03:39:22.630Z,0.00
2018-04-17T03:40:22.620Z,0.00
2018-04-17T03:41:22.611Z,0.00
2018-04-17T03:42:22.602Z,0.00
2018-04-17T03:43:22.592Z,0.00
2018-04-17T03:44:22.582Z,0.00
2018-04-17T03:45:22.572Z,0.00
2018-04-17T03:46:22.566Z,0.00
2018-04-17T03:47:22.560Z,0.00
2018-04-17T03:48:22.547Z,0.00
2018-04-17T03:49:22.532Z,0.00
2018-04-17T03:50:22.523Z,0.00
2018-04-17T03:51:22.514Z,0.00
2018-04-17T03:52:22.504Z,0.00
2018-04-17T03:53:22.495Z,0.00
2018-04-17T03:54:22.486Z,0.00
2018-04-17T03:55:22.476Z,0.00
2018-04-17T03:56:22.466Z,0.00
2018-04-17T03:57:22.461Z,0.00
2018-04-17T03:58:22.472Z,0.00
2018-04-17T03:59:22.440Z,0.00
2018-04-17T04:00:22.429Z,0.00
2018-04-17T04:01:22.420Z,0.00
2018-04-17T04:02:22.414Z,0.00
2018-04-17T04:03:22.400Z,0.00
2018-04-17T04:04:22.491Z,0.00
2018-04-17T04:05:22.390Z,0.00
2018-04-17T04:06:22.373Z,0.00
2018-04-17T04:07:22.409Z,0.00
2018-04-17T04:08:22.358Z,0.00
2018-04-17T04:09:22.345Z,0.00
2018-04-17T04:10:22.335Z,0.00
2018-04-17T04:11:22.329Z,0.00
2018-04-17T04:12:22.317Z,0.00
2018-04-17T04:13:22.308Z,0.00
2018-04-17T04:14:22.300Z,0.00
2018-04-17T04:15:22.292Z,0.00
2018-04-17T04:16:22.280Z,0.00
2018-04-17T04:17:22.271Z,0.00
2018-04-17T04:18:22.262Z,0.00
2018-04-17T04:19:22.254Z,0.00
2018-04-17T04:20:22.242Z,0.00
2018-04-17T04:21:22.233Z,0.00
2018-04-17T04:22:22.225Z,0.00
2018-04-17T04:23:22.215Z,0.00
2018-04-17T04:24:22.205Z,0.00
2018-04-17T04:25:22.196Z,0.00
2018-04-17T04:26:22.186Z,0.00
2018-04-17T04:27:22.178Z,0.00
2018-04-17T04:28:22.167Z,0.00
2018-04-17T04:29:22.158Z,0.00
2018-04-17T04:30:22.149Z,0.00
2018-04-17T04:31:22.139Z,0.00
2018-04-17T04:32:22.138Z,0.00
2018-04-17T04:33:22.121Z,0.00
2018-04-17T04:34:22.111Z,0.00
2018-04-17T04:35:22.100Z,0.00
2018-04-17T04:36:22.091Z,0.00
2018-04-17T04:37:22.082Z,0.00
2018-04-17T04:38:22.073Z,0.00
2018-04-17T04:39:22.065Z,0.00
2018-04-17T04:40:22.053Z,0.00
2018-04-17T04:41:22.045Z,0.00
2018-04-17T04:42:22.036Z,0.00
2018-04-17T04:43:22.027Z,0.00
2018-04-17T04:44:22.016Z,0.00
2018-04-17T04:45:22.008Z,0.00
2018-04-17T04:46:21.998Z,0.00
2018-04-17T04:47:21.989Z,0.00
2018-04-17T04:48:21.978Z,0.00
2018-04-17T04:49:21.978Z,0.00
2018-04-17T04:50:21.960Z,0.00
2018-04-17T04:51:21.951Z,0.00
2018-04-17T04:52:21.939Z,0.00
2018-04-17T04:53:21.934Z,0.00
2018-04-17T04:54:21.922Z,0.00
2018-04-17T04:55:21.913Z,0.00
2018-04-17T04:56:21.904Z,0.00
2018-04-17T04:57:21.896Z,0.00
2018-04-17T04:58:21.884Z,0.00
2018-04-17T04:59:21.875Z,0.00
2018-04-17T05:00:21.865Z,0.00
2018-04-17T05:01:21.858Z,0.00
2018-04-17T05:02:21.847Z,0.00
2018-04-17T05:03:21.840Z,0.00
2018-04-17T05:04:21.828Z,0.00
2018-04-17T05:05:21.819Z,0.00
2018-04-17T05:06:21.810Z,0.00
2018-04-17T05:07:21.800Z,0.00
2018-04-17T05:08:21.790Z,0.00
2018-04-17T05:09:21.781Z,0.00
2018-04-17T05:10:21.773Z,0.00
2018-04-17T05:11:21.763Z,0.00
2018-04-17T05:12:21.753Z,0.00
2018-04-17T05:13:21.744Z,0.00
2018-04-17T05:14:21.735Z,0.00
2018-04-17T05:15:21.726Z,0.00
2018-04-17T05:16:21.716Z,0.00
2018-04-17T05:17:21.707Z,0.00
2018-04-17T05:18:21.699Z,0.00
2018-04-17T05:19:21.691Z,0.00
2018-04-17T05:20:21.679Z,0.00
2018-04-17T05:21:21.670Z,0.00
2018-04-17T05:22:21.661Z,0.00
2018-04-17T05:23:21.653Z,0.00
2018-04-17T05:24:21.642Z,0.00
2018-04-17T05:25:21.633Z,0.00
2018-04-17T05:26:21.627Z,0.00
2018-04-17T05:27:21.615Z,0.00
2018-04-17T05:28:21.710Z,0.00
2018-04-17T05:29:21.596Z,0.00
2018-04-17T05:30:21.588Z,0.00
2018-04-17T05:31:21.578Z,0.00
2018-04-17T05:32:21.571Z,0.00
2018-04-17T05:33:21.563Z,0.00
2018-04-17T05:34:21.650Z,0.00
2018-04-17T05:35:21.543Z,0.00
2018-04-17T05:36:21.530Z,0.00
2018-04-17T05:37:21.524Z,0.00
2018-04-17T05:38:21.513Z,0.00
2018-04-17T05:39:21.503Z,0.00
2018-04-17T05:40:21.593Z,0.00
2018-04-17T05:41:21.484Z,0.00
2018-04-17T05:42:21.477Z,0.00
2018-04-17T05:43:21.467Z,0.00
2018-04-17T05:44:21.456Z,0.00
2018-04-17T05:45:21.447Z,0.00
2018-04-17T05:46:21.438Z,0.00
2018-04-17T05:47:21.428Z,0.00
2018-04-17T05:48:21.419Z,0.00
2018-04-17T05:49:21.409Z,0.00
2018-04-17T05:50:21.400Z,0.00
2018-04-17T05:51:21.391Z,0.00
2018-04-17T05:52:21.381Z,0.00
2018-04-17T05:53:21.372Z,0.00
2018-04-17T05:54:21.362Z,0.00
2018-04-17T05:55:21.355Z,0.00
2018-04-17T05:56:21.343Z,0.00
2018-04-17T05:57:21.335Z,0.00
2018-04-17T05:58:21.425Z,0.00
2018-04-17T05:59:21.314Z,0.00
2018-04-17T06:00:21.305Z,0.00
2018-04-17T06:01:21.294Z,0.00
2018-04-17T06:02:21.290Z,0.00
2018-04-17T06:03:21.278Z,0.00
2018-04-17T06:04:21.368Z,0.00
2018-04-17T06:05:21.257Z,0.00
2018-04-17T06:06:21.248Z,0.00
2018-04-17T06:07:21.239Z,0.00
2018-04-17T06:08:21.229Z,0.00
2018-04-17T06:09:21.220Z,0.00
2018-04-17T06:10:21.210Z,0.00
2018-04-17T06:11:21.202Z,0.00
2018-04-17T06:12:21.192Z,0.00
2018-04-17T06:13:21.186Z,0.00
2018-04-17T06:14:21.178Z,0.00
2018-04-17T06:15:21.168Z,0.00
2018-04-17T06:16:21.260Z,0.00
2018-04-17T06:17:21.148Z,0.00
2018-04-17T06:18:21.140Z,0.00
2018-04-17T06:19:21.130Z,0.00
2018-04-17T06:20:21.120Z,0.00
2018-04-17T06:21:21.111Z,0.00
2018-04-17T06:22:21.204Z,0.00
2018-04-17T06:23:21.133Z,0.00
2018-04-17T06:24:21.080Z,0.00
2018-04-17T06:25:21.072Z,0.00
2018-04-17T06:26:21.063Z,0.00
2018-04-17T06:27:21.055Z,0.00
2018-04-17T06:28:21.144Z,0.00
2018-04-17T06:29:21.036Z,0.00
2018-04-17T06:30:21.026Z,0.00
2018-04-17T06:31:21.016Z,0.00
2018-04-17T06:32:21.005Z,0.00
2018-04-17T06:33:20.996Z,0.00
2018-04-17T06:34:20.986Z,0.00
2018-04-17T06:35:20.977Z,0.00
2018-04-17T06:36:20.967Z,0.00
2018-04-17T06:37:20.957Z,0.00
2018-04-17T06:38:20.948Z,0.00
2018-04-17T06:39:20.939Z,0.00
2018-04-17T06:40:21.029Z,0.00
2018-04-17T06:41:20.922Z,0.00
2018-04-17T06:42:20.910Z,0.00
2018-04-17T06:43:20.901Z,0.00
2018-04-17T06:44:20.890Z,0.00
2018-04-17T06:45:20.882Z,0.00
2018-04-17T06:46:20.972Z,0.00
2018-04-17T06:47:20.909Z,0.00
2018-04-17T06:48:20.851Z,0.00
2018-04-17T06:49:20.842Z,0.00
2018-04-17T06:50:20.834Z,0.00
2018-04-17T06:51:20.822Z,0.00
2018-04-17T06:52:20.815Z,0.00
2018-04-17T06:53:20.802Z,0.00
2018-04-17T06:54:20.794Z,0.00
2018-04-17T06:55:20.787Z,0.00
2018-04-17T06:56:20.776Z,0.00
2018-04-17T06:57:20.766Z,0.00
2018-04-17T06:58:20.757Z,0.00
2018-04-17T06:59:20.748Z,0.00
2018-04-17T07:00:20.739Z,0.00
2018-04-17T07:01:20.728Z,0.00
2018-04-17T07:02:20.720Z,0.00
2018-04-17T07:03:20.716Z,0.00
2018-04-17T07:04:20.800Z,0.00
2018-04-17T07:05:20.699Z,0.00
2018-04-17T07:06:20.682Z,0.00
2018-04-17T07:07:20.673Z,0.00
2018-04-17T07:08:20.663Z,0.00
2018-04-17T07:09:20.659Z,0.00
2018-04-17T07:10:20.746Z,0.00
2018-04-17T07:11:20.637Z,0.00
2018-04-17T07:12:20.630Z,0.00
2018-04-17T07:13:20.615Z,0.00
2018-04-17T07:14:20.608Z,0.00
2018-04-17T07:15:20.599Z,0.00
2018-04-17T07:16:20.690Z,0.00
2018-04-17T07:17:20.579Z,0.00
2018-04-17T07:18:20.572Z,0.00
2018-04-17T07:19:20.561Z,0.00
2018-04-17T07:20:20.552Z,0.00
2018-04-17T07:21:20.542Z,0.00
2018-04-17T07:22:20.535Z,0.00
2018-04-17T07:23:20.525Z,0.00
2018-04-17T07:24:20.514Z,0.00
2018-04-17T07:25:20.505Z,0.00
2018-04-17T07:26:20.496Z,0.00
2018-04-17T07:27:20.486Z,0.00
2018-04-17T07:28:20.476Z,0.00
2018-04-17T07:29:20.473Z,0.00
2018-04-17T07:30:20.458Z,0.00
2018-04-17T07:31:20.449Z,0.00
2018-04-17T07:32:20.438Z,0.00
2018-04-17T07:33:20.429Z,0.00
2018-04-17T07:34:20.420Z,0.00
2018-04-17T07:35:20.411Z,0.00
2018-04-17T07:36:20.400Z,0.00
2018-04-17T07:37:20.391Z,0.00
2018-04-17T07:38:20.380Z,0.00
2018-04-17T07:39:20.373Z,0.00
2018-04-17T07:40:20.395Z,0.00
2018-04-17T07:41:20.355Z,0.00
2018-04-17T07:42:20.345Z,0.00
2018-04-17T07:43:20.332Z,0.00
2018-04-17T07:44:20.322Z,0.00
2018-04-17T07:45:20.309Z,0.00
2018-04-17T07:46:20.302Z,0.00
2018-04-17T07:47:20.331Z,0.00
2018-04-17T07:48:20.283Z,0.00
2018-04-17T07:49:20.273Z,0.00
2018-04-17T07:50:20.264Z,0.00
2018-04-17T07:51:20.255Z,0.00
2018-04-17T07:52:20.346Z,0.00
2018-04-17T07:53:20.236Z,0.00
2018-04-17T07:54:20.227Z,0.00
2018-04-17T07:55:20.218Z,0.00
2018-04-17T07:56:20.208Z,0.00
2018-04-17T07:57:20.198Z,0.00
2018-04-17T07:58:20.188Z,0.00
2018-04-17T07:59:20.180Z,0.00
2018-04-17T08:00:20.169Z,0.00
2018-04-17T08:01:20.161Z,0.00
2018-04-17T08:02:20.151Z,0.00
2018-04-17T08:03:20.140Z,0.00
2018-04-17T08:04:20.233Z,0.00
2018-04-17T08:05:20.122Z,0.00
2018-04-17T08:06:20.112Z,0.00
2018-04-17T08:07:20.103Z,0.00
2018-04-17T08:08:20.146Z,0.00
2018-04-17T08:09:20.085Z,0.00
2018-04-17T08:10:20.074Z,0.00
2018-04-17T08:11:20.066Z,0.00
2018-04-17T08:12:20.056Z,0.00
2018-04-17T08:13:20.047Z,0.00
2018-04-17T08:14:20.038Z,0.00
2018-04-17T08:15:20.028Z,0.00
2018-04-17T08:16:20.018Z,0.00
2018-04-17T08:17:20.009Z,0.00
2018-04-17T08:18:19.999Z,0.00
2018-04-17T08:19:19.991Z,0.00
2018-04-17T08:20:19.980Z,0.00
2018-04-17T08:21:19.971Z,0.00
2018-04-17T08:22:20.063Z,0.00
2018-04-17T08:23:19.952Z,0.00
2018-04-17T08:24:19.942Z,0.00
2018-04-17T08:25:19.933Z,0.00
2018-04-17T08:26:19.923Z,0.00
2018-04-17T08:27:19.913Z,0.00
2018-04-17T08:28:19.904Z,0.00
2018-04-17T08:29:19.894Z,0.00
2018-04-17T08:30:19.885Z,0.00
2018-04-17T08:31:19.876Z,0.00
2018-04-17T08:32:19.868Z,0.00
2018-04-17T08:33:19.857Z,0.00
2018-04-17T08:34:19.948Z,0.00
2018-04-17T08:35:19.840Z,0.00
2018-04-17T08:36:19.828Z,0.00
2018-04-17T08:37:19.818Z,0.00
2018-04-17T08:38:19.813Z,0.00
2018-04-17T08:39:19.802Z,0.00
2018-04-17T08:40:19.790Z,0.00
2018-04-17T08:41:19.781Z,0.00
2018-04-17T08:42:19.774Z,0.00
2018-04-17T08:43:19.763Z,0.00
2018-04-17T08:44:19.753Z,0.00
2018-04-17T08:45:19.743Z,0.00
2018-04-17T08:46:19.733Z,0.00
2018-04-17T08:47:19.725Z,0.00
2018-04-17T08:48:19.715Z,0.00
2018-04-17T08:49:19.705Z,0.00
2018-04-17T08:50:19.696Z,0.00
2018-04-17T08:51:19.687Z,0.00
2018-04-17T08:52:19.777Z,0.00
2018-04-17T08:53:19.668Z,0.00
2018-04-17T08:54:19.657Z,0.00
2018-04-17T08:55:19.649Z,0.00
2018-04-17T08:56:19.643Z,0.00
2018-04-17T08:57:19.631Z,0.00
2018-04-17T08:58:19.620Z,0.00
2018-04-17T08:59:19.629Z,0.00
2018-04-17T09:00:19.601Z,0.00
2018-04-17T09:01:19.591Z,0.00
2018-04-17T09:02:19.581Z,0.00
2018-04-17T09:03:19.574Z,0.00
2018-04-17T09:04:19.662Z,0.00
2018-04-17T09:05:19.573Z,0.00
2018-04-17T09:06:19.545Z,0.00
2018-04-17T09:07:19.535Z,0.00
2018-04-17T09:08:19.525Z,0.00
2018-04-17T09:09:19.516Z,0.00
2018-04-17T09:10:19.606Z,0.00
2018-04-17T09:11:19.497Z,0.00
2018-04-17T09:12:19.491Z,0.00
2018-04-17T09:13:19.479Z,0.00
2018-04-17T09:14:19.469Z,0.00
2018-04-17T09:15:19.460Z,0.00
2018-04-17T09:16:19.550Z,0.00
2018-04-17T09:17:19.441Z,0.00
2018-04-17T09:18:19.431Z,0.00
2018-04-17T09:19:19.422Z,0.00
2018-04-17T09:20:19.413Z,0.00
2018-04-17T09:21:19.404Z,0.00
2018-04-17T09:22:19.394Z,0.00
2018-04-17T09:23:19.384Z,0.00
2018-04-17T09:24:19.374Z,0.00
2018-04-17T09:25:19.365Z,0.00
2018-04-17T09:26:19.355Z,0.00
2018-04-17T09:27:19.347Z,0.00
2018-04-17T09:28:19.336Z,0.00
2018-04-17T09:29:19.338Z,0.00
2018-04-17T09:30:19.318Z,0.00
2018-04-17T09:31:19.306Z,0.00
2018-04-17T09:32:19.300Z,0.00
2018-04-17T09:33:19.289Z,0.00
2018-04-17T09:34:19.380Z,0.00
2018-04-17T09:35:19.271Z,0.00
2018-04-17T09:36:19.260Z,0.00
2018-04-17T09:37:19.251Z,0.00
2018-04-17T09:38:19.241Z,0.00
2018-04-17T09:39:19.232Z,0.00
2018-04-17T09:40:19.222Z,0.00
2018-04-17T09:41:19.212Z,0.00
2018-04-17T09:42:19.204Z,0.00
2018-04-17T09:43:19.195Z,0.00
2018-04-17T09:44:19.187Z,0.00
2018-04-17T09:45:19.176Z,0.00
2018-04-17T09:46:19.265Z,0.00
2018-04-17T09:47:19.156Z,0.00
2018-04-17T09:48:19.145Z,0.00
2018-04-17T09:49:19.136Z,0.00
2018-04-17T09:50:19.125Z,0.00
2018-04-17T09:51:19.119Z,0.00
2018-04-17T09:52:19.207Z,0.00
2018-04-17T09:53:19.097Z,0.00
2018-04-17T09:54:19.089Z,0.00
2018-04-17T09:55:19.079Z,0.00
2018-04-17T09:56:19.070Z,0.00
2018-04-17T09:57:19.060Z,5.63
2018-04-17T09:58:19.051Z,5.63
2018-04-17T09:59:19.042Z,5.63
2018-04-17T10:00:19.033Z,5.63
2018-04-17T10:01:19.022Z,5.63
2018-04-17T10:02:19.013Z,5.63
2018-04-17T10:03:19.003Z,5.63
2018-04-17T10:04:18.997Z,5.63
2018-04-17T10:05:18.984Z,5.63
2018-04-17T10:06:18.974Z,5.63
2018-04-17T10:07:18.965Z,5.63
2018-04-17T10:08:18.955Z,5.63
2018-04-17T10:09:18.947Z,5.63
2018-04-17T10:10:18.936Z,5.63
2018-04-17T10:11:18.928Z,5.63
2018-04-17T10:12:18.917Z,5.63
2018-04-17T10:13:18.907Z,5.63
2018-04-17T10:14:18.898Z,5.63
2018-04-17T10:15:18.895Z,5.63
2018-04-17T10:16:18.980Z,5.63
2018-04-17T10:17:18.911Z,5.63
2018-04-17T10:18:18.859Z,5.63
2018-04-17T10:19:18.851Z,5.63
2018-04-17T10:20:18.841Z,5.63
2018-04-17T10:21:18.831Z,5.63
2018-04-17T10:22:18.822Z,5.63
2018-04-17T10:23:18.813Z,5.63
2018-04-17T10:24:18.801Z,5.63
2018-04-17T10:25:18.793Z,5.63
2018-04-17T10:26:18.785Z,5.63
2018-04-17T10:27:18.775Z,5.63
2018-04-17T10:28:18.765Z,5.63
2018-04-17T10:29:18.757Z,5.63
2018-04-17T10:30:18.769Z,5.63
2018-04-17T10:31:18.737Z,5.63
2018-04-17T10:32:18.731Z,5.63
2018-04-17T10:33:18.719Z,5.63
2018-04-17T10:34:18.810Z,11.25
2018-04-17T10:35:18.700Z,11.25
2018-04-17T10:36:18.691Z,11.25
2018-04-17T10:37:18.681Z,11.25
2018-04-17T10:38:18.673Z,11.25
2018-04-17T10:39:18.664Z,11.25
2018-04-17T10:40:18.653Z,11.25
2018-04-17T10:41:18.645Z,11.25
2018-04-17T10:42:18.637Z,11.25
2018-04-17T10:43:18.627Z,11.25
2018-04-17T10:44:18.617Z,11.25
2018-04-17T10:45:18.607Z,11.25
2018-04-17T10:46:18.598Z,11.25
2018-04-17T10:47:18.590Z,11.25
2018-04-17T10:48:18.580Z,11.25
2018-04-17T10:49:18.574Z,11.25
2018-04-17T10:50:18.563Z,11.25
2018-04-17T10:51:18.554Z,11.25
2018-04-17T10:52:18.644Z,11.25
2018-04-17T10:53:18.536Z,11.25
2018-04-17T10:54:18.527Z,11.25
2018-04-17T10:55:18.547Z,11.25
2018-04-17T10:56:18.508Z,5.63
2018-04-17T10:57:18.499Z,5.63
2018-04-17T10:58:18.491Z,5.63
2018-04-17T10:59:18.480Z,5.63
2018-04-17T11:00:18.471Z,5.63
2018-04-17T11:01:18.462Z,5.63
2018-04-17T11:02:18.453Z,5.63
2018-04-17T11:03:18.485Z,5.63
2018-04-17T11:04:18.439Z,5.63
2018-04-17T11:05:18.429Z,5.63
2018-04-17T11:06:18.421Z,5.63
2018-04-17T11:07:18.414Z,5.63
2018-04-17T11:08:18.402Z,5.63
2018-04-17T11:09:18.394Z,5.63
2018-04-17T11:10:18.385Z,11.25
2018-04-17T11:11:18.375Z,11.25
2018-04-17T11:12:18.367Z,11.25
2018-04-17T11:13:18.360Z,11.25
2018-04-17T11:14:18.352Z,11.25
2018-04-17T11:15:18.342Z,11.25
2018-04-17T11:16:18.468Z,16.88
2018-04-17T11:17:18.322Z,16.88
2018-04-17T11:18:18.313Z,16.88
2018-04-17T11:19:18.306Z,16.88
2018-04-17T11:20:18.297Z,16.88
2018-04-17T11:21:18.294Z,22.50
2018-04-17T11:22:18.385Z,22.50
2018-04-17T11:23:18.273Z,22.50
2018-04-17T11:24:18.261Z,22.50
2018-04-17T11:25:18.253Z,16.88
2018-04-17T11:26:18.246Z,16.88
2018-04-17T11:27:18.236Z,16.88
2018-04-17T11:28:18.225Z,16.88
2018-04-17T11:29:18.217Z,11.25
2018-04-17T11:30:18.212Z,11.25
2018-04-17T11:31:18.204Z,11.25
2018-04-17T11:32:18.197Z,11.25
2018-04-17T11:33:18.185Z,11.25
2018-04-17T11:34:18.278Z,16.88
2018-04-17T11:35:18.167Z,16.88
2018-04-17T11:36:18.160Z,16.88
2018-04-17T11:37:18.151Z,16.88
2018-04-17T11:38:18.144Z,16.88
2018-04-17T11:39:18.135Z,16.88
2018-04-17T11:40:18.227Z,16.88
2018-04-17T11:41:18.118Z,16.88
2018-04-17T11:42:18.110Z,22.50
2018-04-17T11:43:18.101Z,22.50
2018-04-17T11:44:18.093Z,22.50
2018-04-17T11:45:18.085Z,22.50
2018-04-17T11:46:18.228Z,28.13
2018-04-17T11:47:18.071Z,28.13
2018-04-17T11:48:18.062Z,28.13
2018-04-17T11:49:18.052Z,28.13
2018-04-17T11:50:18.044Z,33.75
2018-04-17T11:51:18.037Z,33.75
2018-04-17T11:52:18.029Z,33.75
2018-04-17T11:53:18.024Z,33.75
2018-04-17T11:54:18.013Z,39.38
2018-04-17T11:55:18.006Z,45.00
2018-04-17T11:56:17.998Z,22.50
2018-04-17T11:57:17.988Z,28.13
2018-04-17T11:58:17.983Z,45.00
2018-04-17T11:59:17.979Z,45.00
2018-04-17T12:00:17.970Z,39.38
2018-04-17T12:01:17.963Z,22.50
2018-04-17T12:02:17.966Z,39.38
2018-04-17T12:03:17.947Z,56.25
2018-04-17T12:04:17.944Z,45.00
2018-04-17T12:05:17.932Z,28.13
2018-04-17T12:06:17.927Z,28.13
2018-04-17T12:07:17.919Z,28.13
2018-04-17T12:08:17.914Z,22.50
2018-04-17T12:09:17.904Z,61.88
2018-04-17T12:10:17.902Z,22.50
2018-04-17T12:11:17.891Z,39.38
2018-04-17T12:12:17.884Z,39.38
2018-04-17T12:13:17.878Z,28.13
2018-04-17T12:14:17.870Z,67.50
2018-04-17T12:15:17.864Z,28.13
2018-04-17T12:16:17.956Z,28.13
2018-04-17T12:17:17.850Z,39.38
2018-04-17T12:18:17.841Z,22.50
2018-04-17T12:19:17.836Z,73.13
2018-04-17T12:20:17.855Z,22.50
2018-04-17T12:21:17.822Z,28.13
2018-04-17T12:22:17.816Z,28.13
2018-04-17T12:23:17.811Z,22.50
2018-04-17T12:24:17.801Z,73.13
2018-04-17T12:25:17.795Z,22.50
2018-04-17T12:26:17.796Z,61.88
2018-04-17T12:27:17.783Z,28.13
2018-04-17T12:28:17.773Z,33.75
2018-04-17T12:29:17.769Z,61.88
2018-04-17T12:30:17.763Z,28.13
2018-04-17T12:31:17.758Z,28.13
2018-04-17T12:32:17.751Z,39.38
2018-04-17T12:33:17.744Z,22.50
2018-04-17T12:34:17.837Z,22.50
2018-04-17T12:35:17.731Z,61.88
2018-04-17T12:36:17.724Z,16.88
2018-04-17T12:37:17.718Z,45.00
2018-04-17T12:38:17.712Z,50.63
2018-04-17T12:39:17.706Z,22.50
2018-04-17T12:40:17.699Z,28.13
2018-04-17T12:41:17.697Z,28.13
2018-04-17T12:42:17.687Z,39.38
2018-04-17T12:43:17.681Z,28.13
2018-04-17T12:44:17.676Z,90.00
2018-04-17T12:45:17.670Z,84.38
2018-04-17T12:46:17.762Z,56.25
2018-04-17T12:47:17.656Z,73.13
2018-04-17T12:48:17.650Z,90.00
2018-04-17T12:49:17.664Z,84.38
2018-04-17T12:50:17.636Z,39.38
2018-04-17T12:51:17.633Z,90.00
2018-04-17T12:52:17.625Z,90.00
2018-04-17T12:53:17.620Z,90.00
2018-04-17T12:54:17.616Z,33.75
2018-04-17T12:55:17.613Z,39.38
2018-04-17T12:56:17.603Z,39.38
2018-04-17T12:57:17.597Z,61.88
2018-04-17T12:58:17.594Z,84.38
2018-04-17T12:59:17.588Z,73.13
2018-04-17T13:00:17.581Z,45.00
2018-04-17T13:01:17.575Z,45.00
2018-04-17T13:02:17.571Z,73.13
2018-04-17T13:03:17.567Z,50.63
2018-04-17T13:04:17.661Z,67.50
2018-04-17T13:05:17.555Z,90.00
2018-04-17T13:06:17.549Z,73.13
2018-04-17T13:07:17.544Z,50.63
2018-04-17T13:08:17.539Z,39.38
2018-04-17T13:09:17.535Z,39.38
2018-04-17T13:10:17.529Z,45.00
2018-04-17T13:11:17.524Z,73.13
2018-04-17T13:12:17.519Z,39.38
2018-04-17T13:13:17.512Z,33.75